sensor_id;sensor_type;location;lat;lon;timestamp;P1;durP1;ratioP1;P2;durP2;ratioP2
37157;SDS011;23050;51.776;22.638;2023-02-11T00:03:58;92.68;;;37.25;;
37157;SDS011;23050;51.776;22.638;2023-02-11T00:06:25;89.75;;;34.28;;
37157;SDS011;23050;51.776;22.638;2023-02-11T00:08:52;94.13;;;35.28;;
37157;SDS011;23050;51.776;22.638;2023-02-11T00:11:19;103.10;;;40.08;;
37157;SDS011;23050;51.776;22.638;2023-02-11T00:13:46;112.50;;;42.03;;
37157;SDS011;23050;51.776;22.638;2023-02-11T00:16:14;107.80;;;38.85;;
37157;SDS011;23050;51.776;22.638;2023-02-11T00:18:41;101.93;;;39.50;;
37157;SDS011;23050;51.776;22.638;2023-02-11T00:21:07;84.97;;;32.75;;
37157;SDS011;23050;51.776;22.638;2023-02-11T00:23:38;89.85;;;35.60;;
37157;SDS011;23050;51.776;22.638;2023-02-11T00:26:04;95.32;;;38.45;;
37157;SDS011;23050;51.776;22.638;2023-02-11T00:28:36;123.13;;;43.95;;
37157;SDS011;23050;51.776;22.638;2023-02-11T00:31:02;89.28;;;36.00;;
37157;SDS011;23050;51.776;22.638;2023-02-11T00:33:27;114.93;;;43.67;;
37157;SDS011;23050;51.776;22.638;2023-02-11T00:35:53;92.95;;;32.08;;
37157;SDS011;23050;51.776;22.638;2023-02-11T00:38:19;85.20;;;37.17;;
37157;SDS011;23050;51.776;22.638;2023-02-11T00:40:44;80.55;;;33.30;;
37157;SDS011;23050;51.776;22.638;2023-02-11T00:43:10;86.78;;;34.85;;
37157;SDS011;23050;51.776;22.638;2023-02-11T00:45:35;77.80;;;28.60;;
37157;SDS011;23050;51.776;22.638;2023-02-11T00:48:01;86.43;;;33.00;;
37157;SDS011;23050;51.776;22.638;2023-02-11T00:50:26;75.03;;;32.20;;
37157;SDS011;23050;51.776;22.638;2023-02-11T00:52:52;80.32;;;32.70;;
37157;SDS011;23050;51.776;22.638;2023-02-11T00:55:17;83.22;;;31.08;;
37157;SDS011;23050;51.776;22.638;2023-02-11T00:57:43;86.85;;;31.88;;
37157;SDS011;23050;51.776;22.638;2023-02-11T01:00:10;78.57;;;33.03;;
37157;SDS011;23050;51.776;22.638;2023-02-11T01:02:38;86.07;;;34.70;;
37157;SDS011;23050;51.776;22.638;2023-02-11T01:05:03;84.88;;;32.28;;
37157;SDS011;23050;51.776;22.638;2023-02-11T01:07:29;83.82;;;32.63;;
37157;SDS011;23050;51.776;22.638;2023-02-11T01:09:55;78.10;;;29.88;;
37157;SDS011;23050;51.776;22.638;2023-02-11T01:12:21;80.65;;;34.13;;
37157;SDS011;23050;51.776;22.638;2023-02-11T01:14:47;91.10;;;35.30;;
37157;SDS011;23050;51.776;22.638;2023-02-11T01:17:12;77.38;;;29.92;;
37157;SDS011;23050;51.776;22.638;2023-02-11T01:19:38;85.60;;;30.67;;
37157;SDS011;23050;51.776;22.638;2023-02-11T01:22:04;82.78;;;32.72;;
37157;SDS011;23050;51.776;22.638;2023-02-11T01:24:29;80.70;;;31.80;;
37157;SDS011;23050;51.776;22.638;2023-02-11T01:26:55;79.38;;;34.30;;
37157;SDS011;23050;51.776;22.638;2023-02-11T01:29:21;83.65;;;36.40;;
37157;SDS011;23050;51.776;22.638;2023-02-11T01:31:46;78.07;;;30.92;;
37157;SDS011;23050;51.776;22.638;2023-02-11T01:34:13;87.93;;;33.50;;
37157;SDS011;23050;51.776;22.638;2023-02-11T01:36:38;72.57;;;32.00;;
37157;SDS011;23050;51.776;22.638;2023-02-11T01:39:05;75.70;;;32.10;;
37157;SDS011;23050;51.776;22.638;2023-02-11T01:41:32;83.85;;;34.13;;
37157;SDS011;23050;51.776;22.638;2023-02-11T01:44:20;76.93;;;31.73;;
37157;SDS011;23050;51.776;22.638;2023-02-11T01:46:48;69.97;;;27.85;;
37157;SDS011;23050;51.776;22.638;2023-02-11T01:49:15;73.43;;;29.50;;
37157;SDS011;23050;51.776;22.638;2023-02-11T01:54:17;81.55;;;29.80;;
37157;SDS011;23050;51.776;22.638;2023-02-11T01:57:04;61.00;;;27.52;;
37157;SDS011;23050;51.776;22.638;2023-02-11T01:59:57;61.63;;;26.98;;
37157;SDS011;23050;51.776;22.638;2023-02-11T02:05:23;75.45;;;28.10;;
37157;SDS011;23050;51.776;22.638;2023-02-11T02:10:27;71.93;;;28.55;;
37157;SDS011;23050;51.776;22.638;2023-02-11T02:12:54;65.35;;;26.90;;
37157;SDS011;23050;51.776;22.638;2023-02-11T02:15:21;66.43;;;25.90;;
37157;SDS011;23050;51.776;22.638;2023-02-11T02:34:09;55.70;;;20.92;;
37157;SDS011;23050;51.776;22.638;2023-02-11T02:37:07;49.28;;;21.38;;
37157;SDS011;23050;51.776;22.638;2023-02-11T02:39:39;49.03;;;21.00;;
37157;SDS011;23050;51.776;22.638;2023-02-11T02:42:05;56.03;;;22.38;;
37157;SDS011;23050;51.776;22.638;2023-02-11T02:44:32;45.55;;;18.27;;
37157;SDS011;23050;51.776;22.638;2023-02-11T02:46:58;45.35;;;20.13;;
37157;SDS011;23050;51.776;22.638;2023-02-11T02:49:23;47.25;;;17.95;;
37157;SDS011;23050;51.776;22.638;2023-02-11T02:54:42;41.33;;;17.42;;
37157;SDS011;23050;51.776;22.638;2023-02-11T03:02:39;38.50;;;17.42;;
37157;SDS011;23050;51.776;22.638;2023-02-11T03:11:02;41.22;;;16.17;;
37157;SDS011;23050;51.776;22.638;2023-02-11T03:13:23;40.58;;;18.83;;
37157;SDS011;23050;51.776;22.638;2023-02-11T03:15:54;37.90;;;16.25;;
37157;SDS011;23050;51.776;22.638;2023-02-11T03:18:23;39.83;;;16.27;;
37157;SDS011;23050;51.776;22.638;2023-02-11T03:20:53;45.05;;;17.83;;
37157;SDS011;23050;51.776;22.638;2023-02-11T03:23:22;37.95;;;16.27;;
37157;SDS011;23050;51.776;22.638;2023-02-11T03:28:53;34.78;;;17.05;;
37157;SDS011;23050;51.776;22.638;2023-02-11T03:36:54;31.55;;;14.40;;
37157;SDS011;23050;51.776;22.638;2023-02-11T03:39:30;36.30;;;16.02;;
37157;SDS011;23050;51.776;22.638;2023-02-11T03:42:00;40.42;;;15.45;;
37157;SDS011;23050;51.776;22.638;2023-02-11T03:44:29;39.67;;;17.40;;
37157;SDS011;23050;51.776;22.638;2023-02-11T03:46:58;34.90;;;15.95;;
37157;SDS011;23050;51.776;22.638;2023-02-11T03:49:25;33.05;;;14.85;;
37157;SDS011;23050;51.776;22.638;2023-02-11T03:51:52;34.85;;;13.65;;
37157;SDS011;23050;51.776;22.638;2023-02-11T03:54:22;38.95;;;15.93;;
37157;SDS011;23050;51.776;22.638;2023-02-11T03:56:52;30.42;;;13.13;;
37157;SDS011;23050;51.776;22.638;2023-02-11T03:59:22;42.25;;;15.75;;
37157;SDS011;23050;51.776;22.638;2023-02-11T04:01:47;37.45;;;13.82;;
37157;SDS011;23050;51.776;22.638;2023-02-11T04:04:14;29.42;;;14.15;;
37157;SDS011;23050;51.776;22.638;2023-02-11T04:06:40;31.55;;;14.10;;
37157;SDS011;23050;51.776;22.638;2023-02-11T04:09:06;34.70;;;13.07;;
37157;SDS011;23050;51.776;22.638;2023-02-11T04:11:31;30.98;;;13.13;;
37157;SDS011;23050;51.776;22.638;2023-02-11T04:13:57;28.05;;;13.88;;
37157;SDS011;23050;51.776;22.638;2023-02-11T04:16:22;29.25;;;15.05;;
37157;SDS011;23050;51.776;22.638;2023-02-11T04:18:48;30.02;;;12.88;;
37157;SDS011;23050;51.776;22.638;2023-02-11T04:21:13;32.72;;;14.98;;
37157;SDS011;23050;51.776;22.638;2023-02-11T04:23:39;34.75;;;14.07;;
37157;SDS011;23050;51.776;22.638;2023-02-11T04:26:04;38.47;;;15.80;;
37157;SDS011;23050;51.776;22.638;2023-02-11T04:28:30;31.17;;;14.00;;
37157;SDS011;23050;51.776;22.638;2023-02-11T04:30:56;29.70;;;15.45;;
37157;SDS011;23050;51.776;22.638;2023-02-11T04:33:22;29.35;;;12.57;;
37157;SDS011;23050;51.776;22.638;2023-02-11T04:35:48;32.50;;;14.15;;
37157;SDS011;23050;51.776;22.638;2023-02-11T04:38:14;34.90;;;15.43;;
37157;SDS011;23050;51.776;22.638;2023-02-11T04:40:39;30.25;;;13.43;;
37157;SDS011;23050;51.776;22.638;2023-02-11T04:43:05;30.20;;;12.65;;
37157;SDS011;23050;51.776;22.638;2023-02-11T04:45:31;31.58;;;13.23;;
37157;SDS011;23050;51.776;22.638;2023-02-11T04:47:57;35.63;;;13.07;;
37157;SDS011;23050;51.776;22.638;2023-02-11T04:50:22;31.17;;;12.15;;
37157;SDS011;23050;51.776;22.638;2023-02-11T04:52:48;33.75;;;15.10;;
37157;SDS011;23050;51.776;22.638;2023-02-11T04:55:13;37.72;;;16.38;;
37157;SDS011;23050;51.776;22.638;2023-02-11T04:57:39;32.13;;;14.77;;
37157;SDS011;23050;51.776;22.638;2023-02-11T05:00:05;31.45;;;15.63;;
37157;SDS011;23050;51.776;22.638;2023-02-11T05:02:32;32.55;;;16.55;;
37157;SDS011;23050;51.776;22.638;2023-02-11T05:04:57;37.33;;;14.75;;
37157;SDS011;23050;51.776;22.638;2023-02-11T05:07:23;32.75;;;15.02;;
37157;SDS011;23050;51.776;22.638;2023-02-11T05:09:48;30.15;;;13.75;;
37157;SDS011;23050;51.776;22.638;2023-02-11T05:12:14;24.88;;;11.68;;
37157;SDS011;23050;51.776;22.638;2023-02-11T05:14:39;28.85;;;12.38;;
37157;SDS011;23050;51.776;22.638;2023-02-11T05:17:05;28.13;;;14.35;;
37157;SDS011;23050;51.776;22.638;2023-02-11T05:19:31;25.70;;;13.23;;
37157;SDS011;23050;51.776;22.638;2023-02-11T05:21:56;28.13;;;12.63;;
37157;SDS011;23050;51.776;22.638;2023-02-11T05:24:22;29.42;;;13.68;;
37157;SDS011;23050;51.776;22.638;2023-02-11T05:26:48;25.10;;;11.38;;
37157;SDS011;23050;51.776;22.638;2023-02-11T05:29:13;24.70;;;11.52;;
37157;SDS011;23050;51.776;22.638;2023-02-11T05:31:39;30.42;;;13.68;;
37157;SDS011;23050;51.776;22.638;2023-02-11T05:34:04;29.65;;;12.68;;
37157;SDS011;23050;51.776;22.638;2023-02-11T05:36:30;25.65;;;11.55;;
37157;SDS011;23050;51.776;22.638;2023-02-11T05:38:56;27.88;;;11.80;;
37157;SDS011;23050;51.776;22.638;2023-02-11T05:41:21;27.75;;;13.55;;
37157;SDS011;23050;51.776;22.638;2023-02-11T05:43:47;27.15;;;10.25;;
37157;SDS011;23050;51.776;22.638;2023-02-11T05:46:16;28.42;;;12.48;;
37157;SDS011;23050;51.776;22.638;2023-02-11T05:48:42;25.73;;;11.55;;
37157;SDS011;23050;51.776;22.638;2023-02-11T05:51:08;26.80;;;11.27;;
37157;SDS011;23050;51.776;22.638;2023-02-11T05:53:34;28.13;;;13.35;;
37157;SDS011;23050;51.776;22.638;2023-02-11T05:55:59;48.38;;;22.65;;
37157;SDS011;23050;51.776;22.638;2023-02-11T05:58:25;31.63;;;13.80;;
37157;SDS011;23050;51.776;22.638;2023-02-11T06:00:51;31.02;;;14.50;;
37157;SDS011;23050;51.776;22.638;2023-02-11T06:03:16;30.58;;;14.43;;
37157;SDS011;23050;51.776;22.638;2023-02-11T06:05:42;36.22;;;17.45;;
37157;SDS011;23050;51.776;22.638;2023-02-11T06:08:09;40.63;;;21.25;;
37157;SDS011;23050;51.776;22.638;2023-02-11T06:10:35;25.63;;;12.90;;
37157;SDS011;23050;51.776;22.638;2023-02-11T06:13:01;41.30;;;20.52;;
37157;SDS011;23050;51.776;22.638;2023-02-11T06:15:26;46.03;;;19.13;;
37157;SDS011;23050;51.776;22.638;2023-02-11T06:17:52;38.53;;;20.27;;
37157;SDS011;23050;51.776;22.638;2023-02-11T06:20:17;37.50;;;16.23;;
37157;SDS011;23050;51.776;22.638;2023-02-11T06:22:43;42.85;;;18.58;;
37157;SDS011;23050;51.776;22.638;2023-02-11T06:25:09;50.25;;;21.80;;
37157;SDS011;23050;51.776;22.638;2023-02-11T06:27:35;45.25;;;23.15;;
37157;SDS011;23050;51.776;22.638;2023-02-11T06:30:01;85.70;;;30.52;;
37157;SDS011;23050;51.776;22.638;2023-02-11T06:32:28;54.08;;;23.83;;
37157;SDS011;23050;51.776;22.638;2023-02-11T06:34:53;45.33;;;19.52;;
37157;SDS011;23050;51.776;22.638;2023-02-11T06:37:19;47.70;;;21.20;;
37157;SDS011;23050;51.776;22.638;2023-02-11T06:39:45;39.75;;;19.50;;
37157;SDS011;23050;51.776;22.638;2023-02-11T06:42:10;46.15;;;20.85;;
37157;SDS011;23050;51.776;22.638;2023-02-11T06:44:36;45.47;;;21.67;;
37157;SDS011;23050;51.776;22.638;2023-02-11T06:47:01;57.00;;;25.25;;
37157;SDS011;23050;51.776;22.638;2023-02-11T06:49:27;43.20;;;20.92;;
37157;SDS011;23050;51.776;22.638;2023-02-11T06:51:53;37.33;;;19.55;;
37157;SDS011;23050;51.776;22.638;2023-02-11T06:54:18;46.55;;;20.10;;
37157;SDS011;23050;51.776;22.638;2023-02-11T06:56:44;44.08;;;21.85;;
37157;SDS011;23050;51.776;22.638;2023-02-11T06:59:16;53.95;;;23.02;;
37157;SDS011;23050;51.776;22.638;2023-02-11T07:01:44;53.28;;;23.38;;
37157;SDS011;23050;51.776;22.638;2023-02-11T07:04:10;51.55;;;22.58;;
37157;SDS011;23050;51.776;22.638;2023-02-11T07:06:35;53.35;;;25.27;;
37157;SDS011;23050;51.776;22.638;2023-02-11T07:09:02;50.60;;;21.90;;
37157;SDS011;23050;51.776;22.638;2023-02-11T07:11:29;52.33;;;22.02;;
37157;SDS011;23050;51.776;22.638;2023-02-11T07:13:58;55.70;;;23.90;;
37157;SDS011;23050;51.776;22.638;2023-02-11T07:16:26;58.60;;;25.45;;
37157;SDS011;23050;51.776;22.638;2023-02-11T07:18:52;49.13;;;23.65;;
37157;SDS011;23050;51.776;22.638;2023-02-11T07:21:19;55.83;;;24.17;;
37157;SDS011;23050;51.776;22.638;2023-02-11T07:23:45;45.90;;;21.88;;
37157;SDS011;23050;51.776;22.638;2023-02-11T07:26:16;46.72;;;21.60;;
37157;SDS011;23050;51.776;22.638;2023-02-11T07:28:44;56.75;;;27.10;;
37157;SDS011;23050;51.776;22.638;2023-02-11T07:31:11;47.97;;;22.50;;
37157;SDS011;23050;51.776;22.638;2023-02-11T07:33:38;63.17;;;26.65;;
37157;SDS011;23050;51.776;22.638;2023-02-11T07:36:05;56.25;;;24.45;;
37157;SDS011;23050;51.776;22.638;2023-02-11T07:38:32;53.38;;;25.90;;
37157;SDS011;23050;51.776;22.638;2023-02-11T07:40:59;67.13;;;28.45;;
37157;SDS011;23050;51.776;22.638;2023-02-11T07:43:25;57.90;;;24.67;;
37157;SDS011;23050;51.776;22.638;2023-02-11T07:45:51;57.20;;;26.05;;
37157;SDS011;23050;51.776;22.638;2023-02-11T07:48:17;69.55;;;31.77;;
37157;SDS011;23050;51.776;22.638;2023-02-11T07:50:42;82.13;;;35.67;;
37157;SDS011;23050;51.776;22.638;2023-02-11T07:53:08;42.45;;;20.35;;
37157;SDS011;23050;51.776;22.638;2023-02-11T07:55:34;46.15;;;22.83;;
37157;SDS011;23050;51.776;22.638;2023-02-11T07:57:59;56.58;;;25.23;;
37157;SDS011;23050;51.776;22.638;2023-02-11T08:00:25;56.92;;;28.38;;
37157;SDS011;23050;51.776;22.638;2023-02-11T08:02:50;54.92;;;26.33;;
37157;SDS011;23050;51.776;22.638;2023-02-11T08:05:16;51.03;;;21.90;;
37157;SDS011;23050;51.776;22.638;2023-02-11T08:07:41;52.97;;;25.23;;
37157;SDS011;23050;51.776;22.638;2023-02-11T08:10:07;46.42;;;20.85;;
37157;SDS011;23050;51.776;22.638;2023-02-11T08:12:33;56.50;;;24.23;;
37157;SDS011;23050;51.776;22.638;2023-02-11T08:14:58;71.65;;;34.45;;
37157;SDS011;23050;51.776;22.638;2023-02-11T08:17:24;75.78;;;32.85;;
37157;SDS011;23050;51.776;22.638;2023-02-11T08:19:49;100.70;;;44.22;;
37157;SDS011;23050;51.776;22.638;2023-02-11T08:22:15;84.72;;;37.17;;
37157;SDS011;23050;51.776;22.638;2023-02-11T08:24:40;66.00;;;31.10;;
37157;SDS011;23050;51.776;22.638;2023-02-11T08:27:06;56.75;;;26.80;;
37157;SDS011;23050;51.776;22.638;2023-02-11T08:29:32;112.95;;;49.35;;
37157;SDS011;23050;51.776;22.638;2023-02-11T08:31:57;91.20;;;42.08;;
37157;SDS011;23050;51.776;22.638;2023-02-11T08:34:23;97.43;;;46.90;;
37157;SDS011;23050;51.776;22.638;2023-02-11T08:36:48;125.72;;;58.05;;
37157;SDS011;23050;51.776;22.638;2023-02-11T08:39:15;144.02;;;56.30;;
37157;SDS011;23050;51.776;22.638;2023-02-11T08:41:42;58.55;;;26.35;;
37157;SDS011;23050;51.776;22.638;2023-02-11T08:44:07;66.05;;;32.58;;
37157;SDS011;23050;51.776;22.638;2023-02-11T08:46:33;78.70;;;39.70;;
37157;SDS011;23050;51.776;22.638;2023-02-11T08:48:59;60.50;;;26.33;;
37157;SDS011;23050;51.776;22.638;2023-02-11T08:51:25;50.75;;;22.73;;
37157;SDS011;23050;51.776;22.638;2023-02-11T08:53:52;46.53;;;22.95;;
37157;SDS011;23050;51.776;22.638;2023-02-11T08:56:19;45.15;;;24.15;;
37157;SDS011;23050;51.776;22.638;2023-02-11T08:58:45;74.25;;;36.78;;
37157;SDS011;23050;51.776;22.638;2023-02-11T09:01:12;181.68;;;58.80;;
37157;SDS011;23050;51.776;22.638;2023-02-11T09:03:39;213.48;;;84.38;;
37157;SDS011;23050;51.776;22.638;2023-02-11T09:06:05;80.40;;;33.72;;
37157;SDS011;23050;51.776;22.638;2023-02-11T09:08:37;44.67;;;23.73;;
37157;SDS011;23050;51.776;22.638;2023-02-11T09:11:04;54.97;;;23.52;;
37157;SDS011;23050;51.776;22.638;2023-02-11T09:13:30;65.50;;;28.38;;
37157;SDS011;23050;51.776;22.638;2023-02-11T09:15:57;53.10;;;25.58;;
37157;SDS011;23050;51.776;22.638;2023-02-11T09:18:23;50.53;;;21.40;;
37157;SDS011;23050;51.776;22.638;2023-02-11T09:20:49;60.08;;;31.05;;
37157;SDS011;23050;51.776;22.638;2023-02-11T09:23:15;68.30;;;29.42;;
37157;SDS011;23050;51.776;22.638;2023-02-11T09:25:41;76.28;;;32.58;;
37157;SDS011;23050;51.776;22.638;2023-02-11T09:28:07;59.88;;;28.65;;
37157;SDS011;23050;51.776;22.638;2023-02-11T09:30:33;78.47;;;35.17;;
37157;SDS011;23050;51.776;22.638;2023-02-11T09:33:00;55.60;;;24.48;;
37157;SDS011;23050;51.776;22.638;2023-02-11T09:35:26;67.47;;;30.58;;
37157;SDS011;23050;51.776;22.638;2023-02-11T09:37:52;63.95;;;29.67;;
37157;SDS011;23050;51.776;22.638;2023-02-11T09:40:18;56.83;;;27.77;;
37157;SDS011;23050;51.776;22.638;2023-02-11T09:42:45;93.35;;;41.33;;
37157;SDS011;23050;51.776;22.638;2023-02-11T09:45:24;70.18;;;28.45;;
37157;SDS011;23050;51.776;22.638;2023-02-11T09:47:58;57.80;;;27.45;;
37157;SDS011;23050;51.776;22.638;2023-02-11T09:50:33;62.92;;;27.50;;
37157;SDS011;23050;51.776;22.638;2023-02-11T09:53:08;64.82;;;30.05;;
37157;SDS011;23050;51.776;22.638;2023-02-11T09:55:48;66.60;;;30.23;;
37157;SDS011;23050;51.776;22.638;2023-02-11T10:03:45;61.72;;;28.77;;
37157;SDS011;23050;51.776;22.638;2023-02-11T10:11:48;56.05;;;25.10;;
37157;SDS011;23050;51.776;22.638;2023-02-11T10:17:22;63.63;;;32.97;;
37157;SDS011;23050;51.776;22.638;2023-02-11T10:22:44;155.40;;;63.30;;
37157;SDS011;23050;51.776;22.638;2023-02-11T10:25:19;87.63;;;40.42;;
37157;SDS011;23050;51.776;22.638;2023-02-11T10:27:54;84.25;;;37.85;;
37157;SDS011;23050;51.776;22.638;2023-02-11T10:30:31;72.75;;;34.45;;
37157;SDS011;23050;51.776;22.638;2023-02-11T10:35:45;73.35;;;33.58;;
37157;SDS011;23050;51.776;22.638;2023-02-11T10:38:11;160.88;;;70.38;;
37157;SDS011;23050;51.776;22.638;2023-02-11T10:40:36;65.00;;;29.98;;
37157;SDS011;23050;51.776;22.638;2023-02-11T10:43:06;63.75;;;29.33;;
37157;SDS011;23050;51.776;22.638;2023-02-11T10:45:38;60.28;;;28.00;;
37157;SDS011;23050;51.776;22.638;2023-02-11T10:53:39;62.22;;;30.13;;
37157;SDS011;23050;51.776;22.638;2023-02-11T10:56:06;77.05;;;32.65;;
37157;SDS011;23050;51.776;22.638;2023-02-11T10:58:36;73.22;;;34.78;;
37157;SDS011;23050;51.776;22.638;2023-02-11T11:01:17;71.30;;;31.98;;
37157;SDS011;23050;51.776;22.638;2023-02-11T11:03:46;84.60;;;34.50;;
37157;SDS011;23050;51.776;22.638;2023-02-11T11:06:13;76.20;;;34.03;;
37157;SDS011;23050;51.776;22.638;2023-02-11T11:11:17;70.63;;;31.83;;
37157;SDS011;23050;51.776;22.638;2023-02-11T11:13:57;84.30;;;38.45;;
37157;SDS011;23050;51.776;22.638;2023-02-11T11:16:28;69.60;;;35.75;;
37157;SDS011;23050;51.776;22.638;2023-02-11T11:24:13;72.25;;;34.92;;
37157;SDS011;23050;51.776;22.638;2023-02-11T11:26:44;85.38;;;36.70;;
37157;SDS011;23050;51.776;22.638;2023-02-11T11:29:19;78.75;;;42.90;;
37157;SDS011;23050;51.776;22.638;2023-02-11T11:31:55;187.18;;;80.38;;
37157;SDS011;23050;51.776;22.638;2023-02-11T11:34:29;121.43;;;56.00;;
37157;SDS011;23050;51.776;22.638;2023-02-11T11:36:58;91.93;;;42.03;;
37157;SDS011;23050;51.776;22.638;2023-02-11T11:39:26;79.68;;;37.08;;
37157;SDS011;23050;51.776;22.638;2023-02-11T11:41:59;93.95;;;46.17;;
37157;SDS011;23050;51.776;22.638;2023-02-11T11:44:32;84.75;;;37.17;;
37157;SDS011;23050;51.776;22.638;2023-02-11T11:49:37;78.38;;;40.38;;
37157;SDS011;23050;51.776;22.638;2023-02-11T11:52:31;105.40;;;47.65;;
37157;SDS011;23050;51.776;22.638;2023-02-11T11:55:00;106.25;;;50.08;;
37157;SDS011;23050;51.776;22.638;2023-02-11T11:57:30;98.05;;;43.75;;
37157;SDS011;23050;51.776;22.638;2023-02-11T11:59:59;83.78;;;41.05;;
37157;SDS011;23050;51.776;22.638;2023-02-11T12:05:25;99.93;;;45.40;;
37157;SDS011;23050;51.776;22.638;2023-02-11T12:11:13;106.25;;;50.40;;
37157;SDS011;23050;51.776;22.638;2023-02-11T12:14:02;83.90;;;37.85;;
37157;SDS011;23050;51.776;22.638;2023-02-11T12:24:55;148.23;;;72.95;;
37157;SDS011;23050;51.776;22.638;2023-02-11T12:27:49;136.65;;;66.35;;
37157;SDS011;23050;51.776;22.638;2023-02-11T12:36:14;107.10;;;51.08;;
37157;SDS011;23050;51.776;22.638;2023-02-11T12:39:06;93.88;;;47.53;;
37157;SDS011;23050;51.776;22.638;2023-02-11T12:41:59;95.88;;;46.55;;
37157;SDS011;23050;51.776;22.638;2023-02-11T12:44:54;80.28;;;41.35;;
37157;SDS011;23050;51.776;22.638;2023-02-11T12:47:29;112.65;;;49.95;;
37157;SDS011;23050;51.776;22.638;2023-02-11T12:50:07;103.05;;;50.13;;
37157;SDS011;23050;51.776;22.638;2023-02-11T12:57:55;101.65;;;46.47;;
37157;SDS011;23050;51.776;22.638;2023-02-11T13:00:28;67.88;;;37.05;;
37157;SDS011;23050;51.776;22.638;2023-02-11T13:03:24;74.65;;;39.30;;
37157;SDS011;23050;51.776;22.638;2023-02-11T13:05:57;76.28;;;40.08;;
37157;SDS011;23050;51.776;22.638;2023-02-11T13:08:33;70.10;;;34.30;;
37157;SDS011;23050;51.776;22.638;2023-02-11T13:11:08;82.18;;;39.50;;
37157;SDS011;23050;51.776;22.638;2023-02-11T13:13:55;80.10;;;38.92;;
37157;SDS011;23050;51.776;22.638;2023-02-11T13:16:34;66.50;;;33.88;;
37157;SDS011;23050;51.776;22.638;2023-02-11T13:21:49;91.13;;;48.97;;
37157;SDS011;23050;51.776;22.638;2023-02-11T13:24:31;85.93;;;45.10;;
37157;SDS011;23050;51.776;22.638;2023-02-11T13:32:20;73.05;;;41.55;;
37157;SDS011;23050;51.776;22.638;2023-02-11T13:37:25;78.40;;;39.88;;
37157;SDS011;23050;51.776;22.638;2023-02-11T13:42:30;76.47;;;39.47;;
37157;SDS011;23050;51.776;22.638;2023-02-11T13:44:57;92.22;;;43.80;;
37157;SDS011;23050;51.776;22.638;2023-02-11T13:47:25;83.38;;;42.70;;
37157;SDS011;23050;51.776;22.638;2023-02-11T13:49:59;83.35;;;43.83;;
37157;SDS011;23050;51.776;22.638;2023-02-11T13:52:30;96.18;;;48.28;;
37157;SDS011;23050;51.776;22.638;2023-02-11T13:57:45;81.85;;;38.13;;
37157;SDS011;23050;51.776;22.638;2023-02-11T14:03:42;73.80;;;35.73;;
37157;SDS011;23050;51.776;22.638;2023-02-11T14:19:38;75.53;;;39.17;;
37157;SDS011;23050;51.776;22.638;2023-02-11T14:24:57;78.25;;;40.05;;
37157;SDS011;23050;51.776;22.638;2023-02-11T14:27:27;84.22;;;40.83;;
37157;SDS011;23050;51.776;22.638;2023-02-11T14:41:23;97.97;;;48.20;;
37157;SDS011;23050;51.776;22.638;2023-02-11T14:43:59;133.10;;;66.88;;
37157;SDS011;23050;51.776;22.638;2023-02-11T14:46:29;162.05;;;66.57;;
37157;SDS011;23050;51.776;22.638;2023-02-11T14:48:57;143.63;;;66.18;;
37157;SDS011;23050;51.776;22.638;2023-02-11T14:51:27;126.38;;;67.10;;
37157;SDS011;23050;51.776;22.638;2023-02-11T14:56:49;113.18;;;52.10;;
37157;SDS011;23050;51.776;22.638;2023-02-11T14:59:30;125.72;;;60.13;;
37157;SDS011;23050;51.776;22.638;2023-02-11T15:01:56;134.95;;;62.30;;
37157;SDS011;23050;51.776;22.638;2023-02-11T15:04:27;146.52;;;68.82;;
37157;SDS011;23050;51.776;22.638;2023-02-11T15:06:54;170.20;;;82.15;;
37157;SDS011;23050;51.776;22.638;2023-02-11T15:12:05;124.07;;;57.42;;
37157;SDS011;23050;51.776;22.638;2023-02-11T15:14:56;192.75;;;89.60;;
37157;SDS011;23050;51.776;22.638;2023-02-11T15:17:25;167.05;;;71.47;;
37157;SDS011;23050;51.776;22.638;2023-02-11T15:22:21;168.85;;;81.10;;
37157;SDS011;23050;51.776;22.638;2023-02-11T15:24:58;144.85;;;68.00;;
37157;SDS011;23050;51.776;22.638;2023-02-11T15:27:38;99.80;;;44.10;;
37157;SDS011;23050;51.776;22.638;2023-02-11T15:30:16;122.00;;;57.03;;
37157;SDS011;23050;51.776;22.638;2023-02-11T15:32:45;184.82;;;82.30;;
37157;SDS011;23050;51.776;22.638;2023-02-11T15:35:10;103.97;;;49.47;;
37157;SDS011;23050;51.776;22.638;2023-02-11T15:37:37;160.77;;;74.15;;
37157;SDS011;23050;51.776;22.638;2023-02-11T15:40:13;124.07;;;57.63;;
37157;SDS011;23050;51.776;22.638;2023-02-11T15:45:43;88.88;;;47.03;;
37157;SDS011;23050;51.776;22.638;2023-02-11T15:48:24;147.48;;;65.45;;
37157;SDS011;23050;51.776;22.638;2023-02-11T15:51:47;196.38;;;90.60;;
37157;SDS011;23050;51.776;22.638;2023-02-11T15:53:57;161.05;;;74.55;;
37157;SDS011;23050;51.776;22.638;2023-02-11T15:56:37;164.68;;;80.72;;
37157;SDS011;23050;51.776;22.638;2023-02-11T16:01:42;163.75;;;79.38;;
37157;SDS011;23050;51.776;22.638;2023-02-11T16:04:16;207.70;;;99.10;;
37157;SDS011;23050;51.776;22.638;2023-02-11T16:06:46;149.93;;;72.15;;
37157;SDS011;23050;51.776;22.638;2023-02-11T16:16:47;203.15;;;102.13;;
37157;SDS011;23050;51.776;22.638;2023-02-11T16:19:19;193.43;;;87.40;;
37157;SDS011;23050;51.776;22.638;2023-02-11T16:21:46;164.73;;;74.32;;
37157;SDS011;23050;51.776;22.638;2023-02-11T16:24:19;140.38;;;63.05;;
37157;SDS011;23050;51.776;22.638;2023-02-11T16:26:46;157.80;;;68.68;;
37157;SDS011;23050;51.776;22.638;2023-02-11T16:29:15;148.23;;;67.93;;
37157;SDS011;23050;51.776;22.638;2023-02-11T16:31:45;134.10;;;58.92;;
37157;SDS011;23050;51.776;22.638;2023-02-11T16:34:12;163.68;;;71.78;;
37157;SDS011;23050;51.776;22.638;2023-02-11T16:36:40;143.70;;;62.65;;
37157;SDS011;23050;51.776;22.638;2023-02-11T16:39:05;154.35;;;68.82;;
37157;SDS011;23050;51.776;22.638;2023-02-11T16:41:31;166.63;;;76.03;;
37157;SDS011;23050;51.776;22.638;2023-02-11T16:43:56;146.98;;;64.88;;
37157;SDS011;23050;51.776;22.638;2023-02-11T16:46:22;133.90;;;59.65;;
37157;SDS011;23050;51.776;22.638;2023-02-11T16:48:48;119.20;;;55.55;;
37157;SDS011;23050;51.776;22.638;2023-02-11T16:51:14;123.18;;;55.90;;
37157;SDS011;23050;51.776;22.638;2023-02-11T16:53:39;141.93;;;62.50;;
37157;SDS011;23050;51.776;22.638;2023-02-11T16:56:05;143.18;;;59.65;;
37157;SDS011;23050;51.776;22.638;2023-02-11T16:58:31;126.65;;;59.60;;
37157;SDS011;23050;51.776;22.638;2023-02-11T17:00:57;127.82;;;59.78;;
37157;SDS011;23050;51.776;22.638;2023-02-11T17:03:23;146.00;;;62.72;;
37157;SDS011;23050;51.776;22.638;2023-02-11T17:05:51;148.95;;;61.63;;
37157;SDS011;23050;51.776;22.638;2023-02-11T17:08:17;166.65;;;74.47;;
37157;SDS011;23050;51.776;22.638;2023-02-11T17:10:43;171.63;;;74.18;;
37157;SDS011;23050;51.776;22.638;2023-02-11T17:13:09;152.23;;;61.50;;
37157;SDS011;23050;51.776;22.638;2023-02-11T17:15:34;151.57;;;64.90;;